createdAt,value
2023-05-25T00:10:01.982Z,100218.39
2023-05-25T00:20:07.671Z,100221.48
2023-05-25T00:30:11.681Z,100217.23
2023-05-25T00:40:16.818Z,100222.55
2023-05-25T00:50:35.270Z,100234.17
2023-05-25T01:00:43.270Z,100229.39
2023-05-25T01:10:50.313Z,100234.73
2023-05-25T01:21:13.566Z,100240.20
2023-05-25T01:31:23.716Z,100231.84
2023-05-25T01:41:29.364Z,100225.05
2023-05-25T01:51:50.023Z,100217.54
2023-05-25T02:01:54.898Z,100213.00
2023-05-25T02:11:58.725Z,100209.41
2023-05-25T02:22:03.719Z,100206.46
2023-05-25T02:32:07.633Z,100207.07
2023-05-25T02:42:11.527Z,100211.85
2023-05-25T02:52:15.632Z,100228.79
2023-05-25T03:13:19.277Z,100246.45
2023-05-25T03:23:23.969Z,100246.23
2023-05-25T03:33:28.709Z,100258.02
2023-05-25T03:43:32.573Z,100266.08
2023-05-25T03:53:36.980Z,100277.48
2023-05-25T04:03:41.301Z,100287.23
2023-05-25T04:13:49.262Z,100301.80
2023-05-25T04:23:52.878Z,100309.60
2023-05-25T04:33:59.320Z,100314.50
2023-05-25T04:44:11.385Z,100311.99
2023-05-25T04:54:20.764Z,100317.48
2023-05-25T05:04:25.933Z,100321.02
2023-05-25T05:14:31.529Z,100319.80
2023-05-25T05:24:36.364Z,100322.46
2023-05-25T05:34:40.584Z,100305.17
2023-05-25T05:44:57.736Z,100290.73
2023-05-25T05:55:03.538Z,100288.27
2023-05-25T06:05:08.098Z,100287.27
2023-05-25T06:15:14.456Z,100292.90
2023-05-25T06:25:20.565Z,100290.07
2023-05-25T06:35:24.388Z,100295.36
2023-05-25T06:45:30.716Z,100303.93
2023-05-25T06:56:35.023Z,100320.30
2023-05-25T07:06:40.846Z,100319.65
2023-05-25T07:16:45.352Z,100332.48
2023-05-25T07:26:54.457Z,100345.79
2023-05-25T07:36:58.100Z,100347.42
2023-05-25T07:47:01.955Z,100346.44
2023-05-25T07:57:07.133Z,100343.17
2023-05-25T08:07:11.736Z,100339.48
2023-05-25T08:17:20.572Z,100341.13
2023-05-25T08:27:24.188Z,100345.68
2023-05-25T08:37:27.898Z,100346.27
2023-05-25T08:47:34.025Z,100342.89
2023-05-25T08:58:00.720Z,100348.08
2023-05-25T09:08:11.618Z,100351.02
2023-05-25T09:18:15.223Z,100361.96
2023-05-25T09:28:27.046Z,100351.43
2023-05-25T09:38:31.802Z,100347.94
2023-05-25T09:48:36.561Z,100365.02
2023-05-25T09:58:41.475Z,100364.63
2023-05-25T10:08:46.021Z,100374.65
2023-05-25T10:18:58.279Z,100381.90
2023-05-25T10:29:04.802Z,100375.64
2023-05-25T10:39:13.478Z,100381.88
2023-05-25T10:49:37.676Z,100383.55
2023-05-25T10:59:42.587Z,100383.10
2023-05-25T11:09:58.503Z,100392.88
2023-05-25T11:20:06.419Z,100395.48
2023-05-25T11:30:12.802Z,100389.55
2023-05-25T11:40:17.146Z,100390.41
2023-05-25T11:50:22.858Z,100386.97
2023-05-25T12:00:28.636Z,100395.35
2023-05-25T12:10:32.389Z,100400.92
2023-05-25T12:20:41.559Z,100392.46
2023-05-25T12:30:47.861Z,100396.92
2023-05-25T12:41:08.195Z,100391.50
2023-05-25T12:51:12.422Z,100379.77
2023-05-25T13:01:18.214Z,100387.41
2023-05-25T13:11:22.136Z,100376.21
2023-05-25T13:21:28.676Z,100374.27
2023-05-25T13:31:32.616Z,100370.08
2023-05-25T13:41:36.384Z,100372.85
2023-05-25T13:51:41.842Z,100363.30
2023-05-25T14:01:45.654Z,100367.85
2023-05-25T14:11:49.401Z,100371.83
2023-05-25T14:22:11.127Z,100367.29
2023-05-25T14:32:19.530Z,100373.71
2023-05-25T14:42:28.857Z,100377.67
2023-05-25T14:52:32.662Z,100385.69
2023-05-25T15:02:38.606Z,100384.61
2023-05-25T15:12:44.767Z,100393.06
2023-05-25T15:22:48.526Z,100386.84
2023-05-25T15:32:52.213Z,100390.97
2023-05-25T15:42:56.395Z,100394.14
2023-05-25T15:53:02.214Z,100395.01
2023-05-25T16:03:07.107Z,100391.16
2023-05-25T16:13:10.852Z,100399.17
2023-05-25T16:23:16.562Z,100393.52
2023-05-25T16:33:20.187Z,100397.33
2023-05-25T16:43:26.642Z,100407.77
2023-05-25T16:53:30.386Z,100421.54
2023-05-25T17:03:36.053Z,100431.33
2023-05-25T17:13:40.072Z,100439.60
2023-05-25T17:23:44.129Z,100442.08
2023-05-25T17:33:48.101Z,100435.86
2023-05-25T17:43:54.161Z,100445.45
2023-05-25T17:53:59.192Z,100461.29
2023-05-25T18:04:05.198Z,100465.49
2023-05-25T18:14:08.894Z,100476.67
2023-05-25T18:24:13.526Z,100477.92
2023-05-25T18:34:17.579Z,100481.66
2023-05-25T18:44:21.382Z,100487.63
2023-05-25T18:54:28.327Z,100490.16
2023-05-25T19:04:35.651Z,100492.55
2023-05-25T19:14:39.238Z,100500.42
2023-05-25T19:24:46.973Z,100508.10
2023-05-25T19:34:53.213Z,100522.41
2023-05-25T19:45:00.160Z,100527.02
2023-05-25T19:55:04.271Z,100520.83
2023-05-25T20:05:10.941Z,100521.26
2023-05-25T20:15:14.689Z,100518.55
2023-05-25T20:25:18.677Z,100523.56
2023-05-25T20:35:24.378Z,100526.79
2023-05-25T20:45:29.556Z,100529.18
2023-05-25T20:55:33.369Z,100532.60
2023-05-25T21:05:38.316Z,100535.36
2023-05-25T21:15:44.454Z,100535.39
2023-05-25T21:25:48.887Z,100534.92
2023-05-25T21:35:54.444Z,100537.80
2023-05-25T21:45:58.277Z,100533.07
2023-05-25T21:56:02.109Z,100529.95
2023-05-25T22:06:05.876Z,100529.39
2023-05-25T22:16:13.165Z,100525.00
2023-05-25T22:26:17.009Z,100526.34
2023-05-25T22:36:20.668Z,100519.54
2023-05-25T22:46:26.305Z,100517.19
2023-05-25T22:56:30.582Z,100509.70
2023-05-25T23:06:34.273Z,100506.20
2023-05-25T23:16:41.786Z,100506.48
2023-05-25T23:26:45.497Z,100508.40
2023-05-25T23:36:49.066Z,100516.02
2023-05-25T23:46:55.698Z,100508.71
2023-05-25T23:56:59.511Z,100509.63
